createdAt,value
2023-02-17T00:01:21.877Z,9.18
2023-02-17T00:06:27.222Z,8.73
2023-02-17T00:11:32.334Z,9.80
2023-02-17T00:16:36.134Z,10.80
2023-02-17T00:21:39.839Z,10.45
2023-02-17T00:26:44.911Z,9.85
2023-02-17T00:31:48.894Z,11.65
2023-02-17T00:36:54.878Z,14.05
2023-02-17T00:41:59.936Z,9.23
2023-02-17T00:47:05.601Z,10.00
2023-02-17T00:52:09.584Z,12.45
2023-02-17T00:57:14.801Z,15.55
2023-02-17T01:02:19.340Z,15.18
2023-02-17T01:07:23.148Z,14.13
2023-02-17T01:12:28.188Z,14.25
2023-02-17T01:17:31.902Z,16.48
2023-02-17T01:22:35.565Z,13.77
2023-02-17T01:27:42.738Z,14.43
2023-02-17T01:32:46.502Z,15.10
2023-02-17T01:37:50.426Z,16.33
2023-02-17T01:42:55.505Z,17.23
2023-02-17T01:48:02.388Z,17.60
2023-02-17T01:53:07.432Z,17.87
2023-02-17T01:58:16.417Z,19.12
2023-02-17T02:03:20.778Z,18.95
2023-02-17T02:08:24.622Z,21.35
2023-02-17T02:13:32.837Z,22.17
2023-02-17T02:18:50.417Z,22.27
2023-02-17T02:24:13.886Z,22.17
2023-02-17T02:29:46.600Z,24.45
2023-02-17T02:35:00.154Z,52.60
2023-02-17T02:40:09.003Z,30.70
2023-02-17T02:45:13.856Z,24.58
2023-02-17T02:50:22.479Z,26.10
2023-02-17T02:55:38.484Z,24.42
2023-02-17T03:00:54.128Z,22.08
2023-02-17T03:06:08.223Z,26.48
2023-02-17T03:11:13.796Z,26.42
2023-02-17T03:16:17.514Z,26.95
2023-02-17T03:21:23.669Z,24.83
2023-02-17T03:26:27.421Z,22.42
2023-02-17T03:31:31.463Z,24.60
2023-02-17T03:36:36.534Z,24.17
2023-02-17T03:41:40.294Z,27.05
2023-02-17T03:46:43.984Z,25.67
2023-02-17T03:51:49.051Z,26.75
2023-02-17T03:56:52.829Z,26.83
2023-02-17T04:01:56.583Z,24.52
2023-02-17T04:07:01.694Z,24.33
2023-02-17T04:12:06.120Z,20.80
2023-02-17T04:17:09.837Z,19.40
2023-02-17T04:22:14.922Z,23.20
2023-02-17T04:27:18.668Z,19.65
2023-02-17T04:32:24.512Z,19.58
2023-02-17T04:37:29.622Z,22.50
2023-02-17T04:42:33.347Z,20.33
2023-02-17T04:47:37.098Z,20.95
2023-02-17T04:52:42.276Z,22.83
2023-02-17T04:57:45.971Z,24.73
2023-02-17T05:02:49.797Z,23.87
2023-02-17T05:07:54.905Z,29.50
2023-02-17T05:12:58.956Z,24.45
2023-02-17T05:18:02.792Z,24.75
2023-02-17T05:23:07.977Z,23.87
2023-02-17T05:28:11.767Z,28.02
2023-02-17T05:33:15.504Z,31.08
2023-02-17T05:38:21.010Z,28.65
2023-02-17T05:43:24.810Z,28.00
2023-02-17T05:48:28.549Z,32.08
2023-02-17T05:53:33.686Z,31.77
2023-02-17T05:58:37.734Z,33.00
2023-02-17T06:03:41.484Z,35.88
2023-02-17T06:08:46.643Z,38.63
2023-02-17T06:13:50.437Z,39.97
2023-02-17T06:18:54.205Z,41.75
2023-02-17T06:23:59.263Z,36.67
2023-02-17T06:29:02.981Z,39.75
2023-02-17T06:34:06.853Z,34.55
2023-02-17T06:39:12.040Z,36.25
2023-02-17T06:44:15.838Z,37.17
2023-02-17T06:49:19.897Z,34.72
2023-02-17T06:54:25.016Z,40.90
2023-02-17T06:59:29.260Z,35.33
2023-02-17T07:04:33.659Z,37.65
2023-02-17T07:09:39.556Z,37.53
2023-02-17T07:14:43.293Z,37.15
2023-02-17T07:19:47.089Z,36.17
2023-02-17T07:24:52.241Z,36.50
2023-02-17T07:29:56.467Z,34.25
2023-02-17T07:35:00.247Z,36.42
2023-02-17T07:40:06.394Z,35.60
2023-02-17T07:45:10.497Z,33.40
2023-02-17T07:50:14.283Z,30.10
2023-02-17T07:55:19.738Z,31.17
2023-02-17T08:00:23.752Z,32.92
2023-02-17T08:05:27.602Z,28.70
2023-02-17T08:10:50.391Z,24.05
2023-02-17T08:15:54.227Z,24.63
2023-02-17T08:20:57.986Z,28.02
2023-02-17T08:26:03.095Z,24.55
2023-02-17T08:31:06.975Z,25.67
2023-02-17T08:36:11.969Z,24.92
2023-02-17T08:41:20.070Z,19.52
2023-02-17T08:46:24.570Z,18.45
2023-02-17T08:51:28.450Z,19.70
2023-02-17T08:56:34.827Z,15.82
2023-02-17T09:01:40.012Z,14.60
2023-02-17T09:06:45.762Z,14.60
2023-02-17T09:11:51.146Z,13.52
2023-02-17T09:16:56.369Z,11.48
2023-02-17T09:22:00.220Z,11.50
2023-02-17T09:27:07.560Z,9.93
2023-02-17T09:32:11.629Z,10.43
2023-02-17T09:37:15.459Z,9.32
2023-02-17T09:42:22.814Z,7.35
2023-02-17T09:47:32.979Z,7.37
2023-02-17T09:52:44.606Z,7.03
2023-02-17T09:57:55.658Z,6.80
2023-02-17T10:03:05.965Z,8.35
2023-02-17T10:08:15.877Z,6.55
2023-02-17T10:13:23.899Z,7.07
2023-02-17T10:18:34.341Z,5.93
2023-02-17T10:23:38.482Z,6.25
2023-02-17T10:28:52.097Z,5.55
2023-02-17T10:34:02.337Z,5.50
2023-02-17T10:39:15.375Z,6.72
2023-02-17T10:44:23.829Z,5.00
2023-02-17T10:49:31.396Z,5.12
2023-02-17T10:54:39.491Z,6.33
2023-02-17T10:59:46.565Z,7.37
2023-02-17T11:04:54.912Z,6.65
2023-02-17T11:15:15.641Z,5.32
2023-02-17T11:20:35.519Z,5.78
2023-02-17T11:25:39.432Z,6.40
2023-02-17T11:30:51.732Z,6.55
2023-02-17T11:35:56.644Z,4.50
2023-02-17T11:41:02.206Z,5.70
2023-02-17T11:46:32.071Z,5.53
2023-02-17T11:51:47.917Z,6.10
2023-02-17T11:57:08.232Z,7.03
2023-02-17T12:02:33.016Z,3.20
2023-02-17T12:07:47.956Z,2.95
2023-02-17T12:13:15.187Z,4.22
2023-02-17T12:18:34.597Z,4.50
2023-02-17T12:23:58.341Z,4.45
2023-02-17T12:29:13.563Z,3.25
2023-02-17T12:34:29.310Z,4.32
2023-02-17T12:39:39.493Z,6.43
2023-02-17T12:44:47.081Z,4.82
2023-02-17T12:50:01.154Z,6.37
2023-02-17T12:55:14.735Z,8.07
2023-02-17T13:00:22.208Z,7.05
2023-02-17T13:05:33.409Z,5.13
2023-02-17T13:10:39.878Z,4.80
2023-02-17T13:15:46.004Z,2.75
2023-02-17T13:21:00.839Z,5.15
2023-02-17T13:26:17.910Z,7.85
2023-02-17T13:31:23.940Z,4.62
2023-02-17T13:36:38.139Z,3.50
2023-02-17T13:41:47.944Z,3.30
2023-02-17T13:46:52.373Z,3.97
2023-02-17T13:52:08.743Z,5.62
2023-02-17T13:57:24.474Z,5.07
2023-02-17T14:02:36.066Z,6.15
2023-02-17T14:07:41.610Z,4.80
2023-02-17T14:12:45.610Z,6.32
2023-02-17T14:17:49.862Z,6.60
2023-02-17T14:23:04.831Z,12.07
2023-02-17T14:28:19.765Z,4.80
2023-02-17T14:33:26.013Z,3.97
2023-02-17T14:38:35.074Z,4.28
2023-02-17T14:43:38.847Z,7.97
2023-02-17T14:48:44.649Z,5.93
2023-02-17T14:53:50.860Z,9.85
2023-02-17T14:58:55.087Z,8.10
2023-02-17T15:03:59.095Z,9.50
2023-02-17T15:09:04.163Z,5.22
2023-02-17T15:14:08.114Z,6.20
2023-02-17T15:19:12.109Z,5.78
2023-02-17T15:24:19.877Z,4.18
2023-02-17T15:29:25.116Z,3.62
2023-02-17T15:34:32.173Z,3.75
2023-02-17T15:39:37.320Z,5.62
2023-02-17T15:44:44.222Z,7.05
2023-02-17T15:49:48.109Z,7.62
2023-02-17T15:54:53.869Z,5.32
2023-02-17T15:59:57.774Z,4.82
2023-02-17T16:05:01.532Z,6.28
2023-02-17T16:10:08.153Z,8.77
2023-02-17T16:15:15.755Z,7.35
2023-02-17T16:20:22.202Z,8.57
2023-02-17T16:25:28.680Z,6.37
2023-02-17T16:30:35.190Z,10.48
2023-02-17T16:35:40.368Z,8.43
2023-02-17T16:40:49.011Z,9.73
2023-02-17T16:45:56.019Z,10.25
2023-02-17T16:51:00.048Z,12.63
2023-02-17T16:56:14.972Z,12.35
2023-02-17T17:01:18.746Z,6.25
2023-02-17T17:06:25.228Z,10.30
2023-02-17T17:11:30.339Z,12.68
2023-02-17T17:16:34.813Z,16.00
2023-02-17T17:21:38.594Z,14.65
2023-02-17T17:26:45.815Z,13.65
2023-02-17T17:31:49.932Z,12.80
2023-02-17T17:36:53.800Z,13.43
2023-02-17T17:41:58.867Z,14.10
2023-02-17T17:47:02.811Z,15.50
2023-02-17T17:52:06.577Z,13.13
2023-02-17T17:57:11.668Z,15.15
2023-02-17T18:02:15.448Z,11.40
2023-02-17T18:07:19.288Z,22.73
2023-02-17T18:12:24.411Z,16.00
2023-02-17T18:17:28.198Z,32.03
2023-02-17T18:22:31.904Z,15.40
2023-02-17T18:27:41.825Z,18.80
2023-02-17T18:32:46.064Z,19.73
2023-02-17T18:37:49.828Z,19.45
2023-02-17T18:42:54.974Z,19.00
2023-02-17T18:47:58.828Z,20.48
2023-02-17T18:53:04.930Z,21.15
2023-02-17T18:58:12.326Z,21.80
2023-02-17T19:03:16.230Z,21.70
2023-02-17T19:08:20.008Z,20.73
2023-02-17T19:13:25.063Z,25.83
2023-02-17T19:18:28.769Z,22.10
2023-02-17T19:23:32.594Z,22.90
2023-02-17T19:28:38.518Z,25.25
2023-02-17T19:33:42.972Z,22.50
2023-02-17T19:38:46.967Z,28.67
2023-02-17T19:43:52.195Z,24.80
2023-02-17T19:48:56.040Z,24.42
2023-02-17T19:54:00.622Z,24.55
2023-02-17T19:59:05.725Z,28.67
2023-02-17T20:04:09.466Z,35.83
2023-02-17T20:09:17.981Z,31.17
2023-02-17T20:14:23.237Z,29.27
2023-02-17T20:19:27.021Z,30.80
2023-02-17T20:24:30.722Z,30.60
2023-02-17T20:29:36.436Z,36.83
2023-02-17T20:34:40.870Z,31.52
2023-02-17T20:39:44.550Z,27.75
2023-02-17T20:44:51.008Z,32.60
2023-02-17T20:49:54.764Z,31.67
2023-02-17T20:54:58.467Z,28.98
2023-02-17T21:00:04.776Z,30.67
2023-02-17T21:05:09.270Z,30.37
2023-02-17T21:10:16.986Z,29.45
2023-02-17T21:15:22.674Z,32.05
2023-02-17T21:20:26.364Z,40.00
2023-02-17T21:25:30.175Z,31.40
2023-02-17T21:30:35.207Z,32.78
2023-02-17T21:35:41.105Z,41.60
2023-02-17T21:40:44.868Z,37.17
2023-02-17T21:45:50.000Z,43.33
2023-02-17T21:50:53.968Z,38.20
2023-02-17T21:55:57.649Z,41.22
2023-02-17T22:01:02.791Z,41.28
2023-02-17T22:06:14.211Z,46.20
2023-02-17T22:11:19.414Z,42.83
2023-02-17T22:16:24.897Z,43.65
2023-02-17T22:21:29.127Z,38.25
2023-02-17T22:26:33.173Z,42.30
2023-02-17T22:31:40.520Z,43.60
2023-02-17T22:36:44.383Z,49.80
2023-02-17T22:41:48.163Z,43.10
2023-02-17T22:46:53.210Z,44.78
2023-02-17T22:51:57.030Z,45.85
2023-02-17T22:57:00.847Z,47.90
2023-02-17T23:02:06.162Z,47.72
2023-02-17T23:07:09.993Z,46.90
2023-02-17T23:12:13.720Z,48.40
2023-02-17T23:17:18.861Z,47.67
2023-02-17T23:22:22.517Z,45.10
2023-02-17T23:27:26.241Z,47.45
2023-02-17T23:32:31.332Z,53.92
2023-02-17T23:37:35.052Z,47.90
2023-02-17T23:42:39.158Z,43.90
2023-02-17T23:47:44.188Z,44.28
2023-02-17T23:52:47.895Z,51.63
2023-02-17T23:57:51.628Z,44.30
